Time;durP1;ratioP1;P1;durP2;ratioP2;P2;SDS_P1;SDS_P2;PMS_P1;PMS_P2;Temp;Humidity;BMP_temperature;BMP_pressure;BME280_temperature;BME280_humidity;BME280_pressure;Samples;Min_cycle;Max_cycle;Signal;HPM_P1;HPM_P2
2022/04/19 00:01:44;;;;;;;6.75;6.47;;;3.30;99.80;;;;;;4164408;28;20478;-80
2022/04/19 00:03:47;;;;;;;4.70;4.55;;;3.30;99.00;;;;;;4163240;28;20040;-79
2022/04/19 00:05:50;;;;;;;4.43;4.32;;;3.40;98.60;;;;;;4166341;28;20543;-80
2022/04/19 00:07:52;;;;;;;6.90;5.88;;;3.60;98.50;;;;;;4147736;28;20492;-80
2022/04/19 00:09:55;;;;;;;5.85;5.72;;;3.60;98.50;;;;;;4164322;28;20421;-80
2022/04/19 00:11:59;;;;;;;5.38;5.18;;;3.60;98.50;;;;;;4172242;28;20556;-80
2022/04/19 00:14:01;;;;;;;4.90;4.80;;;3.60;98.70;;;;;;4146677;28;20049;-80
2022/04/19 00:16:03;;;;;;;5.35;5.25;;;3.60;97.60;;;;;;4164735;28;20064;-80
2022/04/19 00:18:07;;;;;;;5.85;5.75;;;3.40;98.90;;;;;;4159058;28;20523;-80
2022/04/19 00:20:10;;;;;;;6.28;6.03;;;3.30;99.60;;;;;;4167994;28;20136;-80
2022/04/19 00:22:12;;;;;;;5.20;4.85;;;3.30;99.90;;;;;;4162861;28;20046;-79
2022/04/19 00:24:14;;;;;;;6.10;5.93;;;3.20;99.90;;;;;;4146235;28;20034;-80
2022/04/19 00:26:17;;;;;;;8.23;5.63;;;3.10;99.90;;;;;;4162809;28;20068;-80
2022/04/19 00:28:19;;;;;;;6.53;6.07;;;3.00;99.90;;;;;;4162893;28;20037;-80
2022/04/19 00:30:25;;;;;;;6.47;6.10;;;3.00;99.90;;;;;;4149138;28;20121;-80
2022/04/19 00:32:55;;;;;;;5.45;5.20;;;3.00;99.90;;;;;;4179269;28;20559;-80
2022/04/19 00:34:59;;;;;;;5.47;5.38;;;3.00;99.90;;;;;;4161855;28;20713;-80
2022/04/19 00:37:01;;;;;;;5.60;5.38;;;2.90;99.90;;;;;;4161677;28;20049;-80
2022/04/19 00:39:05;;;;;;;6.05;5.93;;;2.80;99.90;;;;;;4178365;28;20112;-80
2022/04/19 00:41:11;;;;;;;5.00;4.85;;;2.80;99.90;;;;;;4177981;28;20176;-80
2022/04/19 00:43:18;;;;;;;5.60;5.50;;;2.70;99.90;;;;;;4175774;28;20041;-80
2022/04/19 00:45:24;;;;;;;5.00;4.90;;;2.80;99.90;;;;;;4193317;28;20467;-80
2022/04/19 00:47:54;;;;;;;5.07;4.70;;;2.90;99.90;;;;;;4176863;28;20818;-80
2022/04/19 00:50:24;;;;;;;5.97;5.68;;;3.00;99.90;;;;;;4082853;29;20055;-80
2022/04/19 00:52:32;;;;;;;6.45;5.90;;;2.90;99.90;;;;;;4069806;29;20052;-80
2022/04/19 00:54:34;;;;;;;5.72;5.43;;;2.80;99.90;;;;;;4083321;29;20067;-80
2022/04/19 00:56:39;;;;;;;5.72;5.53;;;2.90;99.90;;;;;;4082723;29;20087;-79
2022/04/19 00:58:41;;;;;;;5.97;5.82;;;2.90;99.90;;;;;;4066626;29;20075;-80
2022/04/19 01:00:43;;;;;;;5.70;5.60;;;2.80;99.90;;;;;;4052100;29;20068;-82
2022/04/19 01:02:46;;;;;;;6.40;5.85;;;2.70;99.90;;;;;;4078289;29;20067;-82
2022/04/19 01:04:49;;;;;;;6.20;6.00;;;2.60;99.90;;;;;;4078512;29;20530;-82
2022/04/19 01:06:52;;;;;;;4.85;4.75;;;2.60;99.90;;;;;;4092047;29;20082;-82
2022/04/19 01:08:54;;;;;;;5.25;5.15;;;2.30;99.90;;;;;;4075077;29;20134;-82
2022/04/19 01:13:19;;;;;;;6.90;6.53;;;2.30;99.90;;;;;;4062438;29;20678;-82
2022/04/19 01:15:21;;;;;;;4.90;4.80;;;2.50;99.90;;;;;;4077908;29;20040;-82
2022/04/19 01:17:25;;;;;;;7.20;6.95;;;2.50;99.90;;;;;;4063466;29;20060;-81
2022/04/19 01:19:27;;;;;;;5.60;5.47;;;2.50;99.90;;;;;;4074730;29;20043;-82
2022/04/19 01:21:42;;;;;;;6.75;6.63;;;2.70;99.90;;;;;;4077849;29;20099;-82
2022/04/19 01:23:45;;;;;;;11.35;5.43;;;2.50;99.90;;;;;;4077690;29;20059;-82
2022/04/19 01:25:48;;;;;;;6.38;6.00;;;2.40;99.90;;;;;;4077811;29;20055;-82
2022/04/19 01:27:50;;;;;;;;;;;2.50;99.90;;;;;;4138778;28;20037;-82
2022/04/19 01:30:00;;;;;;;6.40;6.30;;;2.50;99.90;;;;;;4155265;28;20389;-83
2022/04/19 01:32:04;;;;;;;5.28;5.07;;;2.60;99.90;;;;;;4161592;28;20136;-82
2022/04/19 01:34:06;;;;;;;6.25;6.05;;;2.50;99.90;;;;;;4160363;28;20113;-82
2022/04/19 01:36:09;;;;;;;6.38;6.28;;;2.30;99.90;;;;;;4160518;28;20104;-82
2022/04/19 01:38:11;;;;;;;7.57;7.18;;;2.20;99.90;;;;;;4170940;28;20033;-82
2022/04/19 01:40:17;;;;;;;7.22;6.85;;;2.00;99.90;;;;;;4157934;28;20119;-82
2022/04/19 01:42:24;;;;;;;5.50;5.25;;;2.00;99.90;;;;;;4150994;28;20553;-82
2022/04/19 01:44:33;;;;;;;6.18;6.07;;;2.20;99.90;;;;;;4174344;28;20115;-82
2022/04/19 01:46:36;;;;;;;6.55;6.35;;;2.20;99.90;;;;;;4158477;28;20103;-82
2022/04/19 01:48:38;;;;;;;7.10;6.82;;;2.20;99.90;;;;;;4176022;28;20560;-82
2022/04/19 01:50:41;;;;;;;5.95;5.78;;;2.30;99.90;;;;;;4162862;28;20037;-80
2022/04/19 01:52:44;;;;;;;5.97;5.75;;;2.30;99.90;;;;;;4175754;28;20088;-83
2022/04/19 01:54:46;;;;;;;6.38;5.97;;;2.30;99.90;;;;;;4159707;28;20037;-82
2022/04/19 01:56:48;;;;;;;6.32;5.95;;;2.10;99.90;;;;;;4160290;28;20041;-82
2022/04/19 01:58:50;;;;;;;5.32;5.22;;;2.00;99.90;;;;;;4153869;28;20045;-82
2022/04/19 02:00:52;;;;;;;6.07;5.78;;;2.00;99.90;;;;;;4163172;28;20080;-82
2022/04/19 02:02:55;;;;;;;5.32;5.13;;;1.90;99.90;;;;;;4148126;28;20041;-82
2022/04/19 02:04:57;;;;;;;5.82;5.43;;;1.90;99.90;;;;;;4158034;28;20034;-82
2022/04/19 02:06:59;;;;;;;6.03;5.82;;;2.00;99.90;;;;;;4166388;28;20065;-82
2022/04/19 02:09:03;;;;;;;4.70;4.60;;;1.90;99.90;;;;;;4159209;28;20061;-83
2022/04/19 02:11:05;;;;;;;7.10;6.43;;;1.80;99.90;;;;;;4162348;28;20497;-82
2022/04/19 02:13:08;;;;;;;7.07;6.90;;;1.70;99.90;;;;;;4162734;28;20564;-82
2022/04/19 02:15:11;;;;;;;6.57;5.88;;;1.60;99.90;;;;;;4161011;28;20083;-82
2022/04/19 02:17:14;;;;;;;6.22;5.80;;;1.40;99.90;;;;;;4161061;28;20050;-81
2022/04/19 02:19:16;;;;;;;6.55;6.43;;;1.30;99.90;;;;;;4158366;28;20042;-82
2022/04/19 02:21:18;;;;;;;5.75;5.55;;;1.30;99.90;;;;;;4164049;28;20079;-82
2022/04/19 02:23:20;;;;;;;6.28;6.15;;;1.30;99.90;;;;;;4161605;28;20095;-82
2022/04/19 02:25:26;;;;;;;5.68;5.55;;;1.20;99.90;;;;;;4159390;28;20713;-82
2022/04/19 02:27:31;;;;;;;5.97;5.88;;;1.40;99.90;;;;;;4160962;28;20045;-82
2022/04/19 02:29:33;;;;;;;6.13;5.97;;;1.60;99.90;;;;;;4159286;28;20092;-82
2022/04/19 02:31:35;;;;;;;6.38;6.28;;;1.50;99.90;;;;;;4160513;28;20041;-82
2022/04/19 02:33:37;;;;;;;6.18;6.07;;;1.50;99.90;;;;;;4160977;28;20073;-82
2022/04/19 02:35:40;;;;;;;5.50;5.40;;;1.60;99.90;;;;;;4159244;28;20096;-82
2022/04/19 02:37:49;;;;;;;6.22;6.13;;;1.50;99.90;;;;;;4159354;28;20041;-82
2022/04/19 02:39:51;;;;;;;6.07;5.47;;;1.40;99.90;;;;;;4159413;28;20076;-82
2022/04/19 02:41:55;;;;;;;6.05;5.95;;;1.40;99.90;;;;;;4159759;28;20041;-82
2022/04/19 02:43:59;;;;;;;6.25;6.15;;;1.30;99.90;;;;;;4165010;28;20128;-82
2022/04/19 02:46:01;;;;;;;7.53;7.38;;;1.30;99.90;;;;;;4159099;28;20076;-82
2022/04/19 02:48:06;;;;;;;6.75;6.55;;;1.40;99.90;;;;;;4159354;28;20037;-82
2022/04/19 02:50:09;;;;;;;6.75;6.65;;;1.30;99.90;;;;;;4165764;28;20068;-82
2022/04/19 02:52:11;;;;;;;7.40;7.10;;;1.50;99.90;;;;;;4174257;28;20463;-82
2022/04/19 02:54:13;;;;;;;6.28;6.07;;;1.60;99.90;;;;;;4159298;28;20453;-82
2022/04/19 02:56:16;;;;;;;;;;;1.60;99.90;;;;;;4160945;28;20037;-82
2022/04/19 02:58:18;;;;;;;6.35;6.25;;;1.50;99.90;;;;;;4158960;28;19956;-82
2022/04/19 03:00:20;;;;;;;6.55;6.30;;;1.50;99.90;;;;;;4159739;28;20046;-81
2022/04/19 03:02:22;;;;;;;6.63;6.28;;;1.50;99.90;;;;;;4159005;28;20136;-82
2022/04/19 03:04:24;;;;;;;6.65;6.55;;;1.50;99.90;;;;;;4157954;28;20048;-82
2022/04/19 03:06:27;;;;;;;7.30;6.65;;;1.50;99.90;;;;;;4160192;28;20107;-82
2022/04/19 03:08:32;;;;;;;5.93;5.63;;;1.40;99.90;;;;;;4170847;28;20111;-82
2022/04/19 03:10:34;;;;;;;6.10;6.00;;;1.40;99.90;;;;;;4170611;28;20037;-82
2022/04/19 03:12:36;;;;;;;6.95;6.75;;;1.30;99.90;;;;;;4165103;28;20444;-82
2022/04/19 03:14:38;;;;;;;6.65;6.45;;;1.20;99.90;;;;;;4150806;28;20140;-82
2022/04/19 03:16:40;;;;;;;6.40;6.30;;;1.00;99.90;;;;;;4175006;28;20029;-82
2022/04/19 03:18:43;;;;;;;6.07;5.85;;;0.90;99.90;;;;;;4157520;28;20053;-82
2022/04/19 03:20:46;;;;;;;6.28;5.90;;;0.90;99.90;;;;;;4157352;28;20103;-82
2022/04/19 03:27:41;;;;;;;5.53;5.32;;;1.00;99.90;;;;;;4173756;28;20124;-82
2022/04/19 03:29:43;;;;;;;5.95;5.85;;;0.90;99.90;;;;;;4168416;28;20561;-82
2022/04/19 03:31:46;;;;;;;7.93;7.53;;;0.80;99.90;;;;;;4160427;28;20061;-82
2022/04/19 03:33:52;;;;;;;;;;;0.80;99.90;;;;;;4160463;28;20042;-82
2022/04/19 03:35:56;;;;;;;5.47;5.38;;;0.90;99.90;;;;;;4163891;28;19928;-82
2022/04/19 03:37:58;;;;;;;5.68;5.57;;;1.00;99.90;;;;;;4159087;28;20044;-82
2022/04/19 03:40:00;;;;;;;6.68;6.05;;;1.00;99.90;;;;;;4160254;28;20040;-82
2022/04/19 03:42:02;;;;;;;6.72;6.45;;;1.00;99.90;;;;;;4142818;28;20049;-82
2022/04/19 03:44:06;;;;;;;6.80;6.70;;;0.90;99.90;;;;;;4166448;28;20037;-80
2022/04/19 03:46:09;;;;;;;6.72;6.53;;;0.80;99.90;;;;;;4162733;28;20049;-82
2022/04/19 03:48:13;;;;;;;7.38;7.07;;;0.70;99.90;;;;;;4158825;28;20037;-82
2022/04/19 03:50:16;;;;;;;6.30;5.90;;;0.60;99.90;;;;;;4166428;28;20076;-82
2022/04/19 03:52:19;;;;;;;7.15;6.75;;;0.70;99.90;;;;;;4160218;28;20045;-82
2022/04/19 03:54:21;;;;;;;6.38;6.28;;;0.80;99.90;;;;;;4160233;28;20038;-81
2022/04/19 03:56:23;;;;;;;6.85;6.65;;;0.80;99.90;;;;;;4157885;28;20064;-82
2022/04/19 03:58:27;;;;;;;6.88;6.65;;;0.90;99.90;;;;;;4178208;28;20064;-82
2022/04/19 04:00:29;;;;;;;6.55;6.13;;;0.80;99.90;;;;;;4160444;28;20053;-82
2022/04/19 04:02:31;;;;;;;6.32;6.22;;;0.70;99.90;;;;;;4160624;28;20065;-82
2022/04/19 04:04:35;;;;;;;6.20;6.00;;;0.70;99.90;;;;;;4173497;28;20045;-82
2022/04/19 04:06:37;;;;;;;6.72;6.63;;;0.60;99.90;;;;;;4177648;28;20037;-82
2022/04/19 04:08:39;;;;;;;6.72;6.63;;;0.60;99.90;;;;;;4176666;28;20128;-82
2022/04/19 04:10:41;;;;;;;7.80;7.50;;;0.60;99.90;;;;;;4163426;28;20041;-82
2022/04/19 04:12:43;;;;;;;7.10;7.00;;;0.60;99.90;;;;;;4162369;28;20164;-82
2022/04/19 04:14:46;;;;;;;7.15;6.80;;;0.60;99.90;;;;;;4164661;28;20103;-82
2022/04/19 04:17:18;;;;;;;6.85;6.65;;;0.50;99.90;;;;;;4166977;28;20044;-82
2022/04/19 04:19:24;;;;;;;5.45;5.07;;;0.50;99.90;;;;;;4148222;28;20576;-82
2022/04/19 04:21:26;;;;;;;6.82;6.65;;;0.50;99.90;;;;;;4162144;28;20049;-82
2022/04/19 04:23:33;;;;;;;6.90;6.65;;;0.60;99.90;;;;;;4161258;28;20045;-82
2022/04/19 04:25:35;;;;;;;7.38;7.07;;;0.60;99.90;;;;;;4160465;28;20075;-81
2022/04/19 04:27:37;;;;;;;6.95;6.70;;;0.60;99.90;;;;;;4151524;28;20045;-82
2022/04/19 04:29:39;;;;;;;6.18;5.78;;;0.60;99.90;;;;;;4150323;28;20060;-82
2022/04/19 04:31:41;;;;;;;4.63;4.25;;;0.60;99.90;;;;;;4145810;28;20089;-81
2022/04/19 04:33:44;;;;;;;5.75;5.55;;;0.70;99.90;;;;;;4175875;28;20056;-82
2022/04/19 04:35:46;;;;;;;8.88;5.07;;;0.80;99.90;;;;;;4175123;28;20076;-82
2022/04/19 04:37:48;;;;;;;6.78;6.68;;;0.80;99.90;;;;;;4175600;28;20041;-82
2022/04/19 04:39:50;;;;;;;6.45;6.20;;;0.60;99.90;;;;;;4157932;28;20067;-82
2022/04/19 04:41:52;;;;;;;7.22;6.75;;;0.50;99.90;;;;;;4136945;28;20411;-82
2022/04/19 04:43:54;;;;;;;6.15;5.68;;;0.60;99.90;;;;;;4153712;28;20054;-82
2022/04/19 04:50:37;;;;;;;6.50;5.97;;;0.50;99.90;;;;;;4151195;28;20053;-82
2022/04/19 04:52:39;;;;;;;7.55;7.35;;;0.40;99.90;;;;;;4151533;28;20045;-81
2022/04/19 04:54:43;;;;;;;5.93;5.70;;;0.60;99.90;;;;;;4143780;28;20057;-80
2022/04/19 04:56:45;;;;;;;7.43;7.22;;;0.60;99.90;;;;;;4166882;28;20049;-82
2022/04/19 04:58:47;;;;;;;7.40;7.25;;;0.50;99.90;;;;;;4160819;28;20049;-82
2022/04/19 05:00:49;;;;;;;7.55;7.45;;;0.50;99.90;;;;;;4158217;28;20049;-82
2022/04/19 05:02:57;;;;;;;8.23;6.72;;;0.60;99.90;;;;;;4161877;28;20128;-82
2022/04/19 05:04:59;;;;;;;6.40;5.85;;;0.70;99.90;;;;;;4146005;28;20069;-82
2022/04/19 05:07:01;;;;;;;7.18;6.80;;;0.80;99.90;;;;;;4161661;28;20056;-82
2022/04/19 05:09:04;;;;;;;7.60;6.22;;;0.80;99.90;;;;;;4160450;28;20084;-82
2022/04/19 05:11:06;;;;;;;5.78;5.60;;;0.80;99.90;;;;;;4160888;28;20033;-81
2022/04/19 05:13:08;;;;;;;7.40;7.05;;;0.80;99.90;;;;;;4160585;28;20429;-81
2022/04/19 05:15:10;;;;;;;7.15;6.90;;;0.80;99.90;;;;;;4161910;28;20132;-82
2022/04/19 05:17:12;;;;;;;6.97;6.68;;;0.80;99.90;;;;;;4161846;28;20053;-82
2022/04/19 05:19:14;;;;;;;7.53;7.32;;;0.80;99.90;;;;;;4166851;28;20069;-82
2022/04/19 05:21:20;;;;;;;7.30;6.72;;;0.80;99.90;;;;;;4160084;28;20048;-82
2022/04/19 05:23:22;;;;;;;7.80;7.35;;;0.70;99.90;;;;;;4160099;28;20501;-82
2022/04/19 05:25:24;;;;;;;7.88;7.07;;;0.70;99.90;;;;;;4161293;28;20044;-82
2022/04/19 05:27:26;;;;;;;7.65;7.32;;;0.80;99.90;;;;;;4163058;28;20712;-85
2022/04/19 05:29:28;;;;;;;7.45;7.30;;;0.90;99.90;;;;;;4161029;28;20413;-85
2022/04/19 05:31:30;;;;;;;9.77;8.95;;;0.90;99.90;;;;;;4174126;28;20037;-84
2022/04/19 05:33:34;;;;;;;8.13;7.75;;;0.80;99.90;;;;;;4162344;28;20037;-85
2022/04/19 05:35:36;;;;;;;8.73;7.90;;;0.80;99.90;;;;;;4162222;28;20746;-85
2022/04/19 05:37:39;;;;;;;8.55;8.25;;;0.90;99.90;;;;;;4147229;28;20136;-85
2022/04/19 05:39:42;;;;;;;8.55;7.95;;;1.20;99.90;;;;;;4161884;28;20497;-85
2022/04/19 05:41:45;;;;;;;8.32;8.13;;;1.20;99.90;;;;;;4168420;28;20051;-85
2022/04/19 05:43:48;;;;;;;8.05;7.45;;;1.10;99.90;;;;;;4167381;28;20045;-85
2022/04/19 05:45:51;;;;;;;9.68;9.00;;;1.10;99.90;;;;;;4161698;28;20036;-85
2022/04/19 05:47:53;;;;;;;7.72;7.43;;;1.00;99.90;;;;;;4160693;28;20037;-85
2022/04/19 05:49:55;;;;;;;7.00;6.57;;;1.20;99.90;;;;;;4168792;28;20083;-85
2022/04/19 05:51:58;;;;;;;7.03;6.60;;;1.40;99.90;;;;;;4146442;28;20049;-85
2022/04/19 05:54:01;;;;;;;8.55;8.32;;;1.40;99.90;;;;;;4174766;28;20037;-85
2022/04/19 05:56:03;;;;;;;;;;;1.40;99.90;;;;;;4160962;28;20072;-85
2022/04/19 05:58:05;;;;;;;7.97;7.65;;;1.40;99.90;;;;;;4151169;28;19921;-85
2022/04/19 06:00:08;;;;;;;7.20;6.82;;;1.40;99.90;;;;;;4163874;28;20045;-85
2022/04/19 06:06:52;;;;;;;7.00;6.45;;;1.70;99.90;;;;;;4161215;28;20041;-85
2022/04/19 06:08:55;;;;;;;7.07;6.88;;;1.70;99.90;;;;;;4159264;28;20236;-86
2022/04/19 06:10:57;;;;;;;8.27;7.65;;;1.80;99.90;;;;;;4145984;28;20041;-85
2022/04/19 06:13:00;;;;;;;6.75;6.18;;;1.90;99.90;;;;;;4160552;28;20068;-85
2022/04/19 06:15:02;;;;;;;7.13;6.85;;;2.00;99.90;;;;;;4159433;28;20061;-85
2022/04/19 06:17:05;;;;;;;6.22;6.05;;;2.20;99.90;;;;;;4145670;28;20068;-85
2022/04/19 06:19:07;;;;;;;;;;;2.20;99.90;;;;;;4165627;28;20033;-86
2022/04/19 06:21:09;;;;;;;5.72;5.40;;;2.40;99.90;;;;;;4165121;28;20436;-86
2022/04/19 06:23:11;;;;;;;5.38;5.07;;;2.60;99.90;;;;;;4167742;28;20100;-86
2022/04/19 06:25:14;;;;;;;4.68;4.53;;;2.60;99.90;;;;;;4151931;28;20034;-85
2022/04/19 06:27:17;;;;;;;8.32;3.35;;;2.80;99.90;;;;;;4162417;28;20051;-86
2022/04/19 06:29:19;;;;;;;4.80;4.70;;;3.00;99.90;;;;;;4161142;28;20069;-85
2022/04/19 06:31:21;;;;;;;5.10;5.03;;;3.40;99.90;;;;;;4159949;28;20749;-85
2022/04/19 06:33:25;;;;;;;5.70;5.35;;;3.60;99.90;;;;;;4174702;28;20530;-86
2022/04/19 06:35:28;;;;;;;7.00;4.40;;;3.90;99.90;;;;;;4161246;28;20548;-85
2022/04/19 06:37:31;;;;;;;;;;;4.00;99.90;;;;;;4161808;28;20528;-86
2022/04/19 06:39:38;;;;;;;5.70;3.53;;;4.20;99.90;;;;;;4161548;28;19927;-85
2022/04/19 06:41:41;;;;;;;4.78;4.57;;;4.40;99.90;;;;;;4161652;28;20041;-86
2022/04/19 06:43:43;;;;;;;;;;;4.50;99.90;;;;;;4166873;28;20041;-86
2022/04/19 06:45:47;;;;;;;5.68;5.38;;;4.60;99.90;;;;;;4176730;28;19925;-86
2022/04/19 06:48:01;;;;;;;5.68;4.30;;;5.00;99.90;;;;;;4159953;28;20061;-86
2022/04/19 06:50:03;;;;;;;7.97;3.58;;;5.00;99.90;;;;;;4174555;28;20619;-86
2022/04/19 06:52:06;;;;;;;4.75;4.55;;;5.20;99.90;;;;;;4143957;28;20081;-86
2022/04/19 06:54:09;;;;;;;;;;;5.40;99.90;;;;;;4176956;28;20041;-86
2022/04/19 06:56:11;;;;;;;3.53;3.35;;;5.40;99.90;;;;;;4164323;28;19974;-86
2022/04/19 06:58:14;;;;;;;4.63;3.60;;;5.60;99.90;;;;;;4164684;28;20072;-86
2022/04/19 07:00:17;;;;;;;3.80;3.70;;;5.70;99.90;;;;;;4161237;28;20072;-86
2022/04/19 07:02:20;;;;;;;3.80;3.50;;;5.70;99.90;;;;;;4166987;28;20615;-86
2022/04/19 07:04:22;;;;;;;3.78;3.35;;;6.00;99.90;;;;;;4171199;28;20433;-86
2022/04/19 07:06:24;;;;;;;3.92;3.67;;;6.20;99.90;;;;;;4147279;28;20042;-86
2022/04/19 07:08:26;;;;;;;4.50;3.45;;;6.40;99.90;;;;;;4170756;28;20033;-86
2022/04/19 07:10:28;;;;;;;6.28;3.45;;;6.50;99.90;;;;;;4161214;28;20065;-85
2022/04/19 07:12:31;;;;;;;2.47;2.38;;;6.60;99.90;;;;;;4170000;28;20034;-85
2022/04/19 07:14:34;;;;;;;3.45;3.28;;;6.90;99.90;;;;;;4161623;28;20034;-85
2022/04/19 07:16:37;;;;;;;2.45;1.75;;;7.10;99.90;;;;;;4161414;28;20068;-86
2022/04/19 07:18:40;;;;;;;2.28;2.28;;;7.10;99.90;;;;;;4147810;28;20037;-85
2022/04/19 07:27:50;;;;;;;2.85;2.10;;;7.60;99.90;;;;;;4162376;28;20033;-85
2022/04/19 07:29:52;;;;;;;2.45;2.35;;;7.90;99.90;;;;;;4162333;28;20034;-85
2022/04/19 07:31:56;;;;;;;2.00;1.85;;;8.00;99.90;;;;;;4165746;28;20043;-85
2022/04/19 07:33:59;;;;;;;1.77;1.65;;;8.20;99.60;;;;;;4164399;28;20425;-86
2022/04/19 07:36:02;;;;;;;4.32;2.70;;;8.30;99.40;;;;;;4164620;28;20077;-86
2022/04/19 07:38:04;;;;;;;3.70;2.30;;;8.50;99.00;;;;;;4163095;28;20096;-85
2022/04/19 07:40:07;;;;;;;1.80;1.80;;;8.70;99.30;;;;;;4179286;28;20037;-86
2022/04/19 07:42:09;;;;;;;;;;;8.70;98.70;;;;;;4172055;28;20029;-85
2022/04/19 07:44:41;;;;;;;3.55;1.33;;;8.90;99.20;;;;;;4168733;28;20052;-86
2022/04/19 07:46:44;;;;;;;3.72;1.40;;;9.10;97.80;;;;;;4176382;28;20099;-86
2022/04/19 07:48:51;;;;;;;4.03;1.30;;;9.30;99.60;;;;;;4160619;28;20132;-86
2022/04/19 07:50:53;;;;;;;3.80;2.40;;;9.60;98.00;;;;;;4162109;28;20160;-85
2022/04/19 07:52:57;;;;;;;3.35;2.33;;;9.60;97.30;;;;;;4161986;28;20095;-86
2022/04/19 07:54:59;;;;;;;2.42;2.17;;;9.90;97.00;;;;;;4162196;28;20516;-85
2022/04/19 07:57:02;;;;;;;3.58;1.63;;;10.20;97.10;;;;;;4178300;28;20045;-85
2022/04/19 07:59:05;;;;;;;2.55;1.65;;;10.40;96.10;;;;;;4145727;28;20045;-86
2022/04/19 08:01:12;;;;;;;1.80;1.70;;;10.20;95.40;;;;;;4161703;28;20041;-85
2022/04/19 08:03:14;;;;;;;5.20;1.63;;;10.40;95.10;;;;;;4145472;28;20141;-85
2022/04/19 08:05:16;;;;;;;1.75;1.65;;;10.90;95.40;;;;;;4178413;28;20690;-85
2022/04/19 08:07:18;;;;;;;2.42;1.00;;;11.20;95.70;;;;;;4163437;28;20395;-85
2022/04/19 08:09:20;;;;;;;1.50;1.50;;;11.70;93.20;;;;;;4163843;28;20058;-85
2022/04/19 08:11:22;;;;;;;2.15;1.55;;;11.80;94.40;;;;;;4163704;28;20523;-85
2022/04/19 08:13:26;;;;;;;2.00;1.10;;;12.10;94.90;;;;;;4148055;28;20057;-85
2022/04/19 08:15:28;;;;;;;4.10;0.85;;;11.80;94.10;;;;;;4180197;28;20636;-86
2022/04/19 08:17:32;;;;;;;2.17;1.10;;;12.40;93.80;;;;;;4162440;28;20046;-85
2022/04/19 08:19:34;;;;;;;3.05;1.02;;;12.70;92.90;;;;;;4151657;28;20141;-85
2022/04/19 08:21:37;;;;;;;3.95;1.27;;;12.90;91.90;;;;;;4162133;28;20172;-85
2022/04/19 08:23:40;;;;;;;1.30;1.30;;;12.90;92.10;;;;;;4153647;28;20041;-86
2022/04/19 08:25:43;;;;;;;2.25;1.00;;;12.40;90.40;;;;;;4176251;28;20378;-85
2022/04/19 08:27:48;;;;;;;1.30;1.20;;;12.50;90.30;;;;;;4170333;28;20461;-86
2022/04/19 08:29:50;;;;;;;1.00;1.00;;;12.90;91.00;;;;;;4163791;28;20038;-85
2022/04/19 08:31:52;;;;;;;1.10;1.10;;;13.00;90.80;;;;;;4163705;28;20044;-85
2022/04/19 08:33:55;;;;;;;0.98;0.98;;;13.00;88.60;;;;;;4165082;28;20068;-85
2022/04/19 08:35:58;;;;;;;1.15;1.15;;;13.20;87.40;;;;;;4164724;28;20106;-86
2022/04/19 08:38:01;;;;;;;1.10;1.10;;;13.30;84.60;;;;;;4164816;28;20073;-85
2022/04/19 08:40:09;;;;;;;1.20;1.20;;;13.70;87.50;;;;;;4162052;28;20125;-87
2022/04/19 08:42:11;;;;;;;1.10;1.10;;;13.90;83.80;;;;;;4164790;28;20779;-86
2022/04/19 08:44:14;;;;;;;1.00;1.00;;;14.20;85.20;;;;;;4158119;28;20156;-86
2022/04/19 08:46:18;;;;;;;0.85;0.85;;;14.00;82.80;;;;;;4147316;28;20054;-86
2022/04/19 08:48:25;;;;;;;4.75;1.10;;;13.90;83.10;;;;;;4163552;28;20053;-87
2022/04/19 08:50:29;;;;;;;1.35;1.02;;;13.60;81.00;;;;;;4164386;28;20037;-86
2022/04/19 08:52:34;;;;;;;1.30;1.20;;;13.50;79.50;;;;;;4171386;28;20037;-86
2022/04/19 08:59:27;;;;;;;1.95;1.15;;;14.20;81.80;;;;;;4167425;28;20484;-86
2022/04/19 09:01:30;;;;;;;2.08;1.20;;;13.90;79.40;;;;;;4174868;28;20041;-86
2022/04/19 09:03:33;;;;;;;;;;;14.00;81.50;;;;;;4163232;28;20043;-86
2022/04/19 09:05:49;;;;;;;4.60;1.30;;;13.90;79.60;;;;;;4161775;28;19924;-87
2022/04/19 09:07:54;;;;;;;2.05;0.98;;;13.90;81.20;;;;;;4171842;28;20091;-86
2022/04/19 09:09:59;;;;;;;8.35;1.58;;;14.20;79.80;;;;;;4162996;28;20124;-86
2022/04/19 09:12:12;;;;;;;3.05;1.10;;;14.30;79.50;;;;;;4172917;28;20119;-86
2022/04/19 09:14:14;;;;;;;;;;;14.20;77.40;;;;;;4165059;28;20049;-86
2022/04/19 09:16:22;;;;;;;1.15;1.15;;;14.00;78.20;;;;;;4156913;28;19927;-86
2022/04/19 09:18:29;;;;;;;1.60;1.00;;;14.30;81.10;;;;;;4172787;28;20112;-87
2022/04/19 09:20:33;;;;;;;1.38;1.00;;;14.20;79.70;;;;;;4153806;28;20041;-87
2022/04/19 09:22:37;;;;;;;1.05;1.02;;;14.30;81.00;;;;;;4176886;28;20049;-87
2022/04/19 09:24:40;;;;;;;0.90;0.90;;;14.50;82.70;;;;;;4168929;28;20811;-87
2022/04/19 09:26:42;;;;;;;1.10;1.10;;;14.40;80.60;;;;;;4161345;28;20041;-86
2022/04/19 09:28:44;;;;;;;4.38;1.63;;;14.90;81.50;;;;;;4160147;28;20099;-86
2022/04/19 09:30:51;;;;;;;2.55;1.00;;;15.00;80.40;;;;;;4179266;28;20124;-86
2022/04/19 09:33:16;;;;;;;1.77;1.10;;;14.50;77.60;;;;;;4171356;28;20061;-86
2022/04/19 09:35:28;;;;;;;1.92;1.00;;;14.80;79.30;;;;;;4173266;28;20409;-86
2022/04/19 09:37:31;;;;;;;0.90;0.90;;;15.20;79.50;;;;;;4177187;28;20068;-87
2022/04/19 09:39:36;;;;;;;1.00;1.00;;;15.10;78.90;;;;;;4163895;28;20041;-86
2022/04/19 09:41:40;;;;;;;1.13;1.05;;;15.00;78.50;;;;;;4168268;28;20029;-86
2022/04/19 09:43:43;;;;;;;0.90;0.90;;;15.50;78.00;;;;;;4162167;28;20142;-86
2022/04/19 09:45:55;;;;;;;1.23;1.13;;;15.70;81.30;;;;;;4167231;28;20037;-87
2022/04/19 09:47:58;;;;;;;1.67;1.08;;;15.40;77.00;;;;;;4167154;28;20528;-86
2022/04/19 09:50:00;;;;;;;1.10;1.10;;;15.40;79.10;;;;;;4170555;28;20067;-86
2022/04/19 09:52:03;;;;;;;0.95;0.95;;;16.00;79.90;;;;;;4166923;28;20033;-86
2022/04/19 09:54:06;;;;;;;6.90;1.08;;;15.70;78.60;;;;;;4170711;28;20443;-86
2022/04/19 09:56:12;;;;;;;1.45;1.20;;;16.50;83.40;;;;;;4171458;28;20129;-85
2022/04/19 09:58:15;;;;;;;0.90;0.90;;;16.60;80.90;;;;;;4172955;28;20041;-86
2022/04/19 10:00:19;;;;;;;2.63;1.52;;;15.90;78.40;;;;;;4174561;28;20077;-86
2022/04/19 10:09:29;;;;;;;2.60;1.00;;;16.60;83.80;;;;;;4168887;28;20069;-85
2022/04/19 10:11:32;;;;;;;1.00;1.00;;;16.80;79.40;;;;;;4166965;28;20091;-86
2022/04/19 10:13:37;;;;;;;0.90;0.90;;;17.20;81.80;;;;;;4174332;28;20491;-85
2022/04/19 10:15:42;;;;;;;0.82;0.82;;;17.50;81.30;;;;;;4164178;28;20536;-86
2022/04/19 10:17:47;;;;;;;0.93;0.85;;;17.70;82.20;;;;;;4163402;28;20042;-86
2022/04/19 10:19:50;;;;;;;0.90;0.90;;;17.70;81.30;;;;;;4165715;28;20095;-85
2022/04/19 10:22:18;;;;;;;1.13;0.80;;;18.00;80.10;;;;;;4162770;28;20057;-86
2022/04/19 10:24:20;;;;;;;0.90;0.90;;;17.40;76.70;;;;;;4140945;28;20053;-86
2022/04/19 10:26:24;;;;;;;1.98;1.88;;;16.50;79.50;;;;;;4121866;28;20054;-86
2022/04/19 10:28:30;;;;;;;0.90;0.90;;;17.20;76.90;;;;;;4137913;28;20092;-86
2022/04/19 10:30:33;;;;;;;0.90;0.90;;;17.00;79.00;;;;;;4141438;28;20526;-86
2022/04/19 10:32:36;;;;;;;1.45;0.90;;;17.60;83.60;;;;;;4141457;28;20053;-87
2022/04/19 10:34:44;;;;;;;1.20;0.80;;;17.50;77.00;;;;;;4109523;28;20057;-85
2022/04/19 10:36:48;;;;;;;1.15;0.80;;;17.10;79.60;;;;;;4123218;28;20050;-86
2022/04/19 10:39:12;;;;;;;0.98;0.80;;;17.20;80.70;;;;;;4135461;28;20459;-86
2022/04/19 10:41:55;;;;;;;1.08;1.08;;;17.30;77.10;;;;;;4137804;28;20129;-85
2022/04/19 10:44:20;;;;;;;0.80;0.80;;;17.40;79.30;;;;;;4124544;28;20137;-85
2022/04/19 10:46:22;;;;;;;0.90;0.90;;;18.50;84.80;;;;;;4135880;28;20038;-86
2022/04/19 10:48:25;;;;;;;;;;;19.10;79.60;;;;;;4125385;28;20053;-85
2022/04/19 10:50:34;;;;;;;0.90;0.90;;;19.30;80.20;;;;;;4109701;28;19972;-86
2022/04/19 10:52:42;;;;;;;1.33;0.90;;;19.60;80.50;;;;;;4119830;28;20034;-85
2022/04/19 10:55:06;;;;;;;0.80;0.80;;;19.80;80.80;;;;;;4142372;28;20084;-86
2022/04/19 10:59:36;;;;;;;1.15;0.80;;;20.20;83.40;;;;;;4140824;28;20101;-86
2022/04/19 11:01:39;;;;;;;1.10;1.10;;;19.60;73.90;;;;;;4150109;28;20076;-86
2022/04/19 11:03:47;;;;;;;1.58;1.48;;;19.20;74.00;;;;;;4165012;28;20055;-85
2022/04/19 11:05:51;;;;;;;1.23;0.90;;;19.20;75.10;;;;;;4148465;28;20052;-86
2022/04/19 11:07:54;;;;;;;2.33;2.22;;;19.10;74.50;;;;;;4161370;28;20056;-86
2022/04/19 11:10:05;;;;;;;1.75;0.85;;;19.30;82.60;;;;;;4165666;28;20069;-86
2022/04/19 11:12:12;;;;;;;1.67;0.80;;;19.60;76.80;;;;;;4174858;28;20473;-87
2022/04/19 11:14:20;;;;;;;1.10;1.10;;;19.40;75.30;;;;;;4151793;28;20828;-86
2022/04/19 11:16:37;;;;;;;1.00;0.82;;;18.90;77.90;;;;;;4158416;28;20101;-87
2022/04/19 11:18:40;;;;;;;1.27;0.80;;;18.50;78.40;;;;;;4170279;28;20773;-86
2022/04/19 11:21:06;;;;;;;2.20;0.80;;;18.90;78.70;;;;;;4164849;28;20087;-86
2022/04/19 11:23:19;;;;;;;2.05;0.82;;;18.50;77.40;;;;;;4153512;28;20034;-87
2022/04/19 11:25:43;;;;;;;1.05;0.88;;;18.30;77.60;;;;;;4156659;28;20069;-86
2022/04/19 11:27:56;;;;;;;1.95;0.90;;;18.10;78.20;;;;;;4169141;28;20068;-87
2022/04/19 11:30:10;;;;;;;0.93;0.80;;;18.00;77.70;;;;;;4155475;28;20076;-87
2022/04/19 11:32:13;;;;;;;0.98;0.80;;;18.00;77.80;;;;;;4170772;28;20045;-86
2022/04/19 11:34:18;;;;;;;1.60;0.80;;;17.80;78.50;;;;;;4165804;28;20034;-86
2022/04/19 11:36:20;;;;;;;1.67;0.88;;;17.90;79.30;;;;;;4165732;28;20045;-86